Zamosc, Poland
Current Conditions -  °F | °C
As of 5:30 PM on Friday 24 Oct 2014 (Local Time) from EPLB Reporting Station
Clear Clear  
Wind Chill: 26°   Ceiling: Unl
Heat Index: 34°   Visibility: 6mi
Dew Point: 27°   Wind: 9mph
Humidity: 75%   Direction: 70°ENE
Pressure: 30.39"   Gusts: NA
Location:  50.73°N, 23.26°E
Report Text: EPLB 241530Z 07008KT CAVOK 01/M03 Q1029
Loading
Personal Weather Stations






























Interactive Weather Map
Tropical Storm Tracking
New forecast layout! Learn more

10-Day Weather Forecast

Advertisements
Track Severe Weather on mobile